Terminal Aerodrome Forecast
Issued by NWS Jackson, KY

Home | Current Version | Previous Version | Text Only | Print | Product List | Glossary On
Versions: 1 2 3 4 5 6 7 8 9 10 11 12 13 14 15 16 17 18 19 20 21 22 23
000
FTUS43 KJKL 231100
TAFJKL
TAF
KJKL 231120Z 2312/2412 VRB03KT P6SM OVC025
     FM231300 VRB03KT P6SM BKN030
     FM231500 VRB03KT P6SM SCT030
     FM232100 VRB03KT P6SM SKC
     FM240600 00000KT P6SM BKN200=

USA.gov is the U.S. government's official web portal to all federal, state and local government web resources and services.